sensor_id;sensor_type;location;lat;lon;timestamp;temperature;humidity
40077;DHT22;25777;47.824;18.982;2024-02-26T00:01:56;9.10;99.90
40077;DHT22;25777;47.824;18.982;2024-02-26T00:04:23;9.10;99.90
40077;DHT22;25777;47.824;18.982;2024-02-26T00:06:51;9.10;99.90
40077;DHT22;25777;47.824;18.982;2024-02-26T00:09:20;8.90;99.90
40077;DHT22;25777;47.824;18.982;2024-02-26T00:11:48;9.10;99.90
40077;DHT22;25777;47.824;18.982;2024-02-26T00:14:15;9.10;99.90
40077;DHT22;25777;47.824;18.982;2024-02-26T00:16:43;9.00;99.90
40077;DHT22;25777;47.824;18.982;2024-02-26T00:19:11;9.00;99.90
40077;DHT22;25777;47.824;18.982;2024-02-26T00:21:40;9.10;99.90
40077;DHT22;25777;47.824;18.982;2024-02-26T00:24:08;9.10;99.90
40077;DHT22;25777;47.824;18.982;2024-02-26T00:26:36;9.10;99.90
40077;DHT22;25777;47.824;18.982;2024-02-26T00:29:03;9.10;99.90
40077;DHT22;25777;47.824;18.982;2024-02-26T00:31:31;9.10;99.90
40077;DHT22;25777;47.824;18.982;2024-02-26T00:33:58;9.10;99.90
40077;DHT22;25777;47.824;18.982;2024-02-26T00:36:26;9.10;99.90
40077;DHT22;25777;47.824;18.982;2024-02-26T00:38:54;9.20;99.90
40077;DHT22;25777;47.824;18.982;2024-02-26T00:41:21;9.20;99.90
40077;DHT22;25777;47.824;18.982;2024-02-26T00:43:49;9.20;99.90
40077;DHT22;25777;47.824;18.982;2024-02-26T00:46:16;9.20;99.90
40077;DHT22;25777;47.824;18.982;2024-02-26T00:48:44;9.30;99.90
40077;DHT22;25777;47.824;18.982;2024-02-26T00:51:12;9.30;99.90
40077;DHT22;25777;47.824;18.982;2024-02-26T00:53:39;9.30;99.90
40077;DHT22;25777;47.824;18.982;2024-02-26T00:56:07;9.50;99.90
40077;DHT22;25777;47.824;18.982;2024-02-26T00:58:35;9.20;99.90
40077;DHT22;25777;47.824;18.982;2024-02-26T01:01:02;9.20;99.90
40077;DHT22;25777;47.824;18.982;2024-02-26T01:03:30;9.20;99.90
40077;DHT22;25777;47.824;18.982;2024-02-26T01:05:58;9.20;99.90
40077;DHT22;25777;47.824;18.982;2024-02-26T01:08:25;9.20;99.90
40077;DHT22;25777;47.824;18.982;2024-02-26T01:10:53;9.20;99.90
40077;DHT22;25777;47.824;18.982;2024-02-26T01:13:20;9.20;99.90
40077;DHT22;25777;47.824;18.982;2024-02-26T01:15:48;9.20;99.90
40077;DHT22;25777;47.824;18.982;2024-02-26T01:18:16;9.20;99.90
40077;DHT22;25777;47.824;18.982;2024-02-26T01:20:43;9.20;99.90
40077;DHT22;25777;47.824;18.982;2024-02-26T01:23:10;9.20;99.90
40077;DHT22;25777;47.824;18.982;2024-02-26T01:25:38;9.20;99.90
40077;DHT22;25777;47.824;18.982;2024-02-26T01:28:06;9.20;99.90
40077;DHT22;25777;47.824;18.982;2024-02-26T01:30:33;9.20;99.90
40077;DHT22;25777;47.824;18.982;2024-02-26T01:33:00;9.20;99.90
40077;DHT22;25777;47.824;18.982;2024-02-26T01:35:27;9.20;99.90
40077;DHT22;25777;47.824;18.982;2024-02-26T01:37:55;9.20;99.90
40077;DHT22;25777;47.824;18.982;2024-02-26T01:40:27;9.20;99.90
40077;DHT22;25777;47.824;18.982;2024-02-26T01:42:55;9.30;99.90
40077;DHT22;25777;47.824;18.982;2024-02-26T01:45:23;9.20;99.90
40077;DHT22;25777;47.824;18.982;2024-02-26T01:47:51;9.30;99.90
40077;DHT22;25777;47.824;18.982;2024-02-26T01:50:19;9.30;99.90
40077;DHT22;25777;47.824;18.982;2024-02-26T01:52:49;9.40;99.90
40077;DHT22;25777;47.824;18.982;2024-02-26T01:55:17;9.40;99.90
40077;DHT22;25777;47.824;18.982;2024-02-26T01:57:45;9.40;99.90
40077;DHT22;25777;47.824;18.982;2024-02-26T02:00:13;9.40;99.90
40077;DHT22;25777;47.824;18.982;2024-02-26T02:02:42;9.40;99.90
40077;DHT22;25777;47.824;18.982;2024-02-26T02:05:13;9.40;99.90
40077;DHT22;25777;47.824;18.982;2024-02-26T02:07:41;9.30;99.90
40077;DHT22;25777;47.824;18.982;2024-02-26T02:10:09;9.20;99.90
40077;DHT22;25777;47.824;18.982;2024-02-26T02:12:37;9.30;99.90
40077;DHT22;25777;47.824;18.982;2024-02-26T02:15:06;9.20;99.90
40077;DHT22;25777;47.824;18.982;2024-02-26T02:17:33;9.10;99.90
40077;DHT22;25777;47.824;18.982;2024-02-26T02:20:01;9.20;99.90
40077;DHT22;25777;47.824;18.982;2024-02-26T02:22:29;8.70;99.90
40077;DHT22;25777;47.824;18.982;2024-02-26T02:24:58;9.20;99.90
40077;DHT22;25777;47.824;18.982;2024-02-26T02:27:26;9.20;99.90
40077;DHT22;25777;47.824;18.982;2024-02-26T02:29:54;9.30;99.90
40077;DHT22;25777;47.824;18.982;2024-02-26T02:32:22;9.30;99.90
40077;DHT22;25777;47.824;18.982;2024-02-26T02:34:50;9.30;99.90
40077;DHT22;25777;47.824;18.982;2024-02-26T02:37:17;9.20;99.90
40077;DHT22;25777;47.824;18.982;2024-02-26T02:39:45;9.30;99.90
40077;DHT22;25777;47.824;18.982;2024-02-26T02:42:13;9.20;99.90
40077;DHT22;25777;47.824;18.982;2024-02-26T02:44:40;9.20;99.90
40077;DHT22;25777;47.824;18.982;2024-02-26T02:47:08;9.30;99.90
40077;DHT22;25777;47.824;18.982;2024-02-26T02:49:35;9.10;99.90
40077;DHT22;25777;47.824;18.982;2024-02-26T02:52:03;9.10;99.90
40077;DHT22;25777;47.824;18.982;2024-02-26T02:54:31;9.10;99.90
40077;DHT22;25777;47.824;18.982;2024-02-26T02:56:59;8.70;99.90
40077;DHT22;25777;47.824;18.982;2024-02-26T02:59:26;9.10;99.90
40077;DHT22;25777;47.824;18.982;2024-02-26T03:01:54;9.10;99.90
40077;DHT22;25777;47.824;18.982;2024-02-26T03:04:22;9.10;99.90
40077;DHT22;25777;47.824;18.982;2024-02-26T03:06:49;9.00;99.90
40077;DHT22;25777;47.824;18.982;2024-02-26T03:09:17;9.00;99.90
40077;DHT22;25777;47.824;18.982;2024-02-26T03:11:45;8.90;99.90
40077;DHT22;25777;47.824;18.982;2024-02-26T03:14:12;9.10;99.90
40077;DHT22;25777;47.824;18.982;2024-02-26T03:16:40;9.20;99.90
40077;DHT22;25777;47.824;18.982;2024-02-26T03:19:07;9.20;99.90
40077;DHT22;25777;47.824;18.982;2024-02-26T03:21:35;9.10;99.90
40077;DHT22;25777;47.824;18.982;2024-02-26T03:24:03;9.20;99.90
40077;DHT22;25777;47.824;18.982;2024-02-26T03:26:31;9.20;99.90
40077;DHT22;25777;47.824;18.982;2024-02-26T03:28:58;9.20;99.90
40077;DHT22;25777;47.824;18.982;2024-02-26T03:31:26;9.20;99.90
40077;DHT22;25777;47.824;18.982;2024-02-26T03:33:53;9.20;99.90
40077;DHT22;25777;47.824;18.982;2024-02-26T03:36:21;9.20;99.90
40077;DHT22;25777;47.824;18.982;2024-02-26T03:38:48;9.10;99.90
40077;DHT22;25777;47.824;18.982;2024-02-26T03:41:15;9.20;99.90
40077;DHT22;25777;47.824;18.982;2024-02-26T03:43:43;9.10;99.90
40077;DHT22;25777;47.824;18.982;2024-02-26T03:46:11;9.10;99.90
40077;DHT22;25777;47.824;18.982;2024-02-26T03:48:41;9.10;99.90
40077;DHT22;25777;47.824;18.982;2024-02-26T03:51:09;9.20;99.90
40077;DHT22;25777;47.824;18.982;2024-02-26T03:53:36;9.10;99.90
40077;DHT22;25777;47.824;18.982;2024-02-26T03:56:04;9.10;99.90
40077;DHT22;25777;47.824;18.982;2024-02-26T03:58:32;9.10;99.90
40077;DHT22;25777;47.824;18.982;2024-02-26T04:00:59;9.00;99.90
40077;DHT22;25777;47.824;18.982;2024-02-26T04:03:28;9.10;99.90
40077;DHT22;25777;47.824;18.982;2024-02-26T04:05:56;9.10;99.90
40077;DHT22;25777;47.824;18.982;2024-02-26T04:08:24;9.20;99.90
40077;DHT22;25777;47.824;18.982;2024-02-26T04:10:52;9.20;99.90
40077;DHT22;25777;47.824;18.982;2024-02-26T04:13:19;9.20;99.90
40077;DHT22;25777;47.824;18.982;2024-02-26T04:15:46;9.30;99.90
40077;DHT22;25777;47.824;18.982;2024-02-26T04:18:15;9.30;99.90
40077;DHT22;25777;47.824;18.982;2024-02-26T04:20:42;9.30;99.90
40077;DHT22;25777;47.824;18.982;2024-02-26T04:23:09;9.40;99.90
40077;DHT22;25777;47.824;18.982;2024-02-26T04:25:37;9.40;99.90
40077;DHT22;25777;47.824;18.982;2024-02-26T04:28:04;9.30;99.90
40077;DHT22;25777;47.824;18.982;2024-02-26T04:30:31;9.30;99.90
40077;DHT22;25777;47.824;18.982;2024-02-26T04:32:59;9.30;99.90
40077;DHT22;25777;47.824;18.982;2024-02-26T04:35:26;9.40;99.90
40077;DHT22;25777;47.824;18.982;2024-02-26T04:37:53;9.30;99.90
40077;DHT22;25777;47.824;18.982;2024-02-26T04:40:20;9.30;99.90
40077;DHT22;25777;47.824;18.982;2024-02-26T04:42:47;9.30;99.90
40077;DHT22;25777;47.824;18.982;2024-02-26T04:45:14;9.20;99.90
40077;DHT22;25777;47.824;18.982;2024-02-26T04:47:42;9.20;99.90
40077;DHT22;25777;47.824;18.982;2024-02-26T04:50:10;9.20;99.90
40077;DHT22;25777;47.824;18.982;2024-02-26T04:52:37;9.10;99.90
40077;DHT22;25777;47.824;18.982;2024-02-26T04:55:05;9.20;99.90
40077;DHT22;25777;47.824;18.982;2024-02-26T04:57:32;9.10;99.90
40077;DHT22;25777;47.824;18.982;2024-02-26T05:00:00;9.10;99.90
40077;DHT22;25777;47.824;18.982;2024-02-26T05:02:28;9.00;99.90
40077;DHT22;25777;47.824;18.982;2024-02-26T05:04:56;9.00;99.90
40077;DHT22;25777;47.824;18.982;2024-02-26T05:07:23;9.00;99.90
40077;DHT22;25777;47.824;18.982;2024-02-26T05:09:51;9.00;99.90
40077;DHT22;25777;47.824;18.982;2024-02-26T05:12:18;9.10;99.90
40077;DHT22;25777;47.824;18.982;2024-02-26T05:14:44;9.00;99.90
40077;DHT22;25777;47.824;18.982;2024-02-26T05:17:11;9.00;99.90
40077;DHT22;25777;47.824;18.982;2024-02-26T05:19:38;9.00;99.90
40077;DHT22;25777;47.824;18.982;2024-02-26T05:22:05;9.10;99.90
40077;DHT22;25777;47.824;18.982;2024-02-26T05:24:31;8.80;99.90
40077;DHT22;25777;47.824;18.982;2024-02-26T05:26:59;9.10;99.90
40077;DHT22;25777;47.824;18.982;2024-02-26T05:29:26;9.10;99.90
40077;DHT22;25777;47.824;18.982;2024-02-26T05:31:54;9.20;99.90
40077;DHT22;25777;47.824;18.982;2024-02-26T05:34:21;9.20;99.90
40077;DHT22;25777;47.824;18.982;2024-02-26T05:36:48;8.90;99.90
40077;DHT22;25777;47.824;18.982;2024-02-26T05:39:15;9.20;99.90
40077;DHT22;25777;47.824;18.982;2024-02-26T05:41:42;9.20;99.90
40077;DHT22;25777;47.824;18.982;2024-02-26T05:44:10;9.30;99.90
40077;DHT22;25777;47.824;18.982;2024-02-26T05:46:38;9.20;99.90
40077;DHT22;25777;47.824;18.982;2024-02-26T05:49:05;9.20;99.90
40077;DHT22;25777;47.824;18.982;2024-02-26T05:51:33;9.20;99.90
40077;DHT22;25777;47.824;18.982;2024-02-26T05:53:59;9.20;99.90
40077;DHT22;25777;47.824;18.982;2024-02-26T05:56:26;9.10;99.90
40077;DHT22;25777;47.824;18.982;2024-02-26T05:58:54;9.10;99.90
40077;DHT22;25777;47.824;18.982;2024-02-26T06:01:22;9.10;99.90
40077;DHT22;25777;47.824;18.982;2024-02-26T06:03:50;9.10;99.90
40077;DHT22;25777;47.824;18.982;2024-02-26T06:06:18;9.20;99.90
40077;DHT22;25777;47.824;18.982;2024-02-26T06:08:48;9.10;99.90
40077;DHT22;25777;47.824;18.982;2024-02-26T06:11:16;9.10;99.90
40077;DHT22;25777;47.824;18.982;2024-02-26T06:13:43;9.10;99.90
40077;DHT22;25777;47.824;18.982;2024-02-26T06:16:11;9.20;99.90
40077;DHT22;25777;47.824;18.982;2024-02-26T06:21:33;9.30;99.90
40077;DHT22;25777;47.824;18.982;2024-02-26T06:24:00;9.30;99.90
40077;DHT22;25777;47.824;18.982;2024-02-26T06:26:28;9.30;99.90
40077;DHT22;25777;47.824;18.982;2024-02-26T06:28:55;9.40;99.90
40077;DHT22;25777;47.824;18.982;2024-02-26T06:31:23;9.30;99.90
40077;DHT22;25777;47.824;18.982;2024-02-26T06:33:50;9.30;99.90
40077;DHT22;25777;47.824;18.982;2024-02-26T06:36:18;9.20;99.90
40077;DHT22;25777;47.824;18.982;2024-02-26T06:38:47;9.30;99.90
40077;DHT22;25777;47.824;18.982;2024-02-26T06:41:15;9.40;99.90
40077;DHT22;25777;47.824;18.982;2024-02-26T06:43:42;9.30;99.90
40077;DHT22;25777;47.824;18.982;2024-02-26T06:46:09;9.30;99.90
40077;DHT22;25777;47.824;18.982;2024-02-26T06:48:37;9.30;99.90
40077;DHT22;25777;47.824;18.982;2024-02-26T06:51:04;9.30;99.90
40077;DHT22;25777;47.824;18.982;2024-02-26T06:53:32;9.40;99.90
40077;DHT22;25777;47.824;18.982;2024-02-26T06:56:00;9.40;99.90
40077;DHT22;25777;47.824;18.982;2024-02-26T06:58:28;9.40;99.90
40077;DHT22;25777;47.824;18.982;2024-02-26T07:00:55;9.40;99.90
40077;DHT22;25777;47.824;18.982;2024-02-26T07:03:23;9.40;99.90
40077;DHT22;25777;47.824;18.982;2024-02-26T07:05:51;9.40;99.90
40077;DHT22;25777;47.824;18.982;2024-02-26T07:08:19;9.40;99.90
40077;DHT22;25777;47.824;18.982;2024-02-26T07:10:47;9.60;99.90
40077;DHT22;25777;47.824;18.982;2024-02-26T07:13:15;9.50;99.90
40077;DHT22;25777;47.824;18.982;2024-02-26T07:15:43;9.50;99.90
40077;DHT22;25777;47.824;18.982;2024-02-26T07:18:10;9.50;99.90
40077;DHT22;25777;47.824;18.982;2024-02-26T07:20:39;9.40;99.90
40077;DHT22;25777;47.824;18.982;2024-02-26T07:23:07;9.40;99.90
40077;DHT22;25777;47.824;18.982;2024-02-26T07:25:35;9.40;99.90
40077;DHT22;25777;47.824;18.982;2024-02-26T07:28:02;9.40;99.90
40077;DHT22;25777;47.824;18.982;2024-02-26T07:30:30;9.50;99.90
40077;DHT22;25777;47.824;18.982;2024-02-26T07:32:57;9.40;99.90
40077;DHT22;25777;47.824;18.982;2024-02-26T07:35:25;9.50;99.90
40077;DHT22;25777;47.824;18.982;2024-02-26T07:37:54;9.50;99.90
40077;DHT22;25777;47.824;18.982;2024-02-26T07:40:22;9.50;99.90
40077;DHT22;25777;47.824;18.982;2024-02-26T07:42:49;9.50;99.90
40077;DHT22;25777;47.824;18.982;2024-02-26T07:45:17;9.60;99.90
40077;DHT22;25777;47.824;18.982;2024-02-26T07:47:47;9.60;99.90
40077;DHT22;25777;47.824;18.982;2024-02-26T07:50:14;9.60;99.90
40077;DHT22;25777;47.824;18.982;2024-02-26T07:52:42;9.70;99.90
40077;DHT22;25777;47.824;18.982;2024-02-26T07:55:10;9.70;99.90
40077;DHT22;25777;47.824;18.982;2024-02-26T07:57:41;9.70;99.90
40077;DHT22;25777;47.824;18.982;2024-02-26T08:00:09;9.70;99.90
40077;DHT22;25777;47.824;18.982;2024-02-26T08:02:37;9.70;99.90
40077;DHT22;25777;47.824;18.982;2024-02-26T08:05:05;9.70;99.90
40077;DHT22;25777;47.824;18.982;2024-02-26T08:07:33;9.80;99.90
40077;DHT22;25777;47.824;18.982;2024-02-26T08:10:00;9.80;99.90
40077;DHT22;25777;47.824;18.982;2024-02-26T08:12:28;9.70;99.90
40077;DHT22;25777;47.824;18.982;2024-02-26T08:14:56;9.80;99.90
40077;DHT22;25777;47.824;18.982;2024-02-26T08:17:24;9.80;99.90
40077;DHT22;25777;47.824;18.982;2024-02-26T08:19:53;9.80;99.90
40077;DHT22;25777;47.824;18.982;2024-02-26T08:22:21;9.90;99.90
40077;DHT22;25777;47.824;18.982;2024-02-26T08:24:50;10.00;99.90
40077;DHT22;25777;47.824;18.982;2024-02-26T08:27:18;10.10;99.90
40077;DHT22;25777;47.824;18.982;2024-02-26T08:29:45;10.00;99.90
40077;DHT22;25777;47.824;18.982;2024-02-26T08:32:13;10.10;99.90
40077;DHT22;25777;47.824;18.982;2024-02-26T08:34:40;10.10;99.90
40077;DHT22;25777;47.824;18.982;2024-02-26T08:37:08;10.20;99.90
40077;DHT22;25777;47.824;18.982;2024-02-26T08:39:35;10.20;99.90
40077;DHT22;25777;47.824;18.982;2024-02-26T08:42:03;10.20;99.90
40077;DHT22;25777;47.824;18.982;2024-02-26T08:44:31;10.30;99.90
40077;DHT22;25777;47.824;18.982;2024-02-26T08:46:58;10.30;99.90
40077;DHT22;25777;47.824;18.982;2024-02-26T08:49:26;10.30;99.90
40077;DHT22;25777;47.824;18.982;2024-02-26T08:51:54;10.30;99.90
40077;DHT22;25777;47.824;18.982;2024-02-26T08:54:21;10.40;99.90
40077;DHT22;25777;47.824;18.982;2024-02-26T08:56:50;10.40;99.90
40077;DHT22;25777;47.824;18.982;2024-02-26T08:59:18;10.40;99.90
40077;DHT22;25777;47.824;18.982;2024-02-26T09:01:48;10.50;99.90
40077;DHT22;25777;47.824;18.982;2024-02-26T09:04:16;10.50;99.90
40077;DHT22;25777;47.824;18.982;2024-02-26T09:06:44;10.50;99.90
40077;DHT22;25777;47.824;18.982;2024-02-26T09:09:11;10.60;99.90
40077;DHT22;25777;47.824;18.982;2024-02-26T09:11:39;10.70;99.90
40077;DHT22;25777;47.824;18.982;2024-02-26T09:14:06;10.80;99.90
40077;DHT22;25777;47.824;18.982;2024-02-26T09:16:34;10.90;99.90
40077;DHT22;25777;47.824;18.982;2024-02-26T09:19:01;11.10;99.90
40077;DHT22;25777;47.824;18.982;2024-02-26T09:21:29;11.10;99.90
40077;DHT22;25777;47.824;18.982;2024-02-26T09:23:59;11.30;99.90
40077;DHT22;25777;47.824;18.982;2024-02-26T09:26:27;11.40;99.90
40077;DHT22;25777;47.824;18.982;2024-02-26T09:28:55;11.50;99.90
40077;DHT22;25777;47.824;18.982;2024-02-26T09:31:22;11.40;99.90
40077;DHT22;25777;47.824;18.982;2024-02-26T09:33:50;11.50;99.90
40077;DHT22;25777;47.824;18.982;2024-02-26T09:36:18;11.60;99.90
40077;DHT22;25777;47.824;18.982;2024-02-26T09:38:45;11.60;99.90
40077;DHT22;25777;47.824;18.982;2024-02-26T09:41:14;11.60;99.90
40077;DHT22;25777;47.824;18.982;2024-02-26T09:43:44;11.60;99.90
40077;DHT22;25777;47.824;18.982;2024-02-26T09:46:12;11.60;99.90
40077;DHT22;25777;47.824;18.982;2024-02-26T09:48:42;11.50;99.90
40077;DHT22;25777;47.824;18.982;2024-02-26T09:51:10;11.60;99.90
40077;DHT22;25777;47.824;18.982;2024-02-26T09:53:38;11.60;99.90
40077;DHT22;25777;47.824;18.982;2024-02-26T09:56:09;11.60;99.90
40077;DHT22;25777;47.824;18.982;2024-02-26T09:58:37;11.50;99.90
40077;DHT22;25777;47.824;18.982;2024-02-26T10:01:08;11.50;99.90
40077;DHT22;25777;47.824;18.982;2024-02-26T10:03:38;11.50;99.90
40077;DHT22;25777;47.824;18.982;2024-02-26T10:06:08;11.50;99.90
40077;DHT22;25777;47.824;18.982;2024-02-26T10:08:35;11.60;99.90
40077;DHT22;25777;47.824;18.982;2024-02-26T10:11:04;11.60;99.90
40077;DHT22;25777;47.824;18.982;2024-02-26T10:13:32;11.70;99.90
40077;DHT22;25777;47.824;18.982;2024-02-26T10:16:00;11.70;99.90
40077;DHT22;25777;47.824;18.982;2024-02-26T10:18:51;11.70;99.90
40077;DHT22;25777;47.824;18.982;2024-02-26T10:21:16;11.80;99.90
40077;DHT22;25777;47.824;18.982;2024-02-26T10:23:45;11.90;99.90
40077;DHT22;25777;47.824;18.982;2024-02-26T10:26:13;11.90;99.90
40077;DHT22;25777;47.824;18.982;2024-02-26T10:28:42;11.90;99.90
40077;DHT22;25777;47.824;18.982;2024-02-26T10:31:10;12.00;99.90
40077;DHT22;25777;47.824;18.982;2024-02-26T10:33:38;12.00;99.90
40077;DHT22;25777;47.824;18.982;2024-02-26T10:36:06;12.10;99.90
40077;DHT22;25777;47.824;18.982;2024-02-26T10:38:35;12.00;99.90
40077;DHT22;25777;47.824;18.982;2024-02-26T10:41:05;11.90;99.90
40077;DHT22;25777;47.824;18.982;2024-02-26T10:43:33;11.90;99.90
40077;DHT22;25777;47.824;18.982;2024-02-26T10:46:00;11.90;99.90
40077;DHT22;25777;47.824;18.982;2024-02-26T10:48:28;11.80;99.90
40077;DHT22;25777;47.824;18.982;2024-02-26T10:50:56;12.00;99.90
40077;DHT22;25777;47.824;18.982;2024-02-26T10:53:25;12.10;99.90
40077;DHT22;25777;47.824;18.982;2024-02-26T10:55:55;12.10;99.90
40077;DHT22;25777;47.824;18.982;2024-02-26T10:58:24;12.20;99.90
40077;DHT22;25777;47.824;18.982;2024-02-26T11:00:52;12.30;99.90
40077;DHT22;25777;47.824;18.982;2024-02-26T11:03:20;12.40;99.90
40077;DHT22;25777;47.824;18.982;2024-02-26T11:05:48;12.30;99.90
40077;DHT22;25777;47.824;18.982;2024-02-26T11:08:16;12.30;99.90
40077;DHT22;25777;47.824;18.982;2024-02-26T11:10:47;12.40;99.90
40077;DHT22;25777;47.824;18.982;2024-02-26T11:13:16;12.40;99.90
40077;DHT22;25777;47.824;18.982;2024-02-26T11:15:46;12.40;99.90
40077;DHT22;25777;47.824;18.982;2024-02-26T11:18:17;12.40;99.90
40077;DHT22;25777;47.824;18.982;2024-02-26T11:20:46;12.50;99.90
40077;DHT22;25777;47.824;18.982;2024-02-26T11:23:15;12.50;99.90
40077;DHT22;25777;47.824;18.982;2024-02-26T11:25:43;12.60;99.90
40077;DHT22;25777;47.824;18.982;2024-02-26T11:28:16;12.60;99.90
40077;DHT22;25777;47.824;18.982;2024-02-26T11:30:46;12.70;99.90
40077;DHT22;25777;47.824;18.982;2024-02-26T11:33:14;12.70;99.90
40077;DHT22;25777;47.824;18.982;2024-02-26T11:35:42;12.70;99.90
40077;DHT22;25777;47.824;18.982;2024-02-26T11:38:12;12.70;99.90
40077;DHT22;25777;47.824;18.982;2024-02-26T11:40:45;12.90;99.90
40077;DHT22;25777;47.824;18.982;2024-02-26T11:43:13;12.80;99.90
40077;DHT22;25777;47.824;18.982;2024-02-26T11:48:12;13.00;99.90
40077;DHT22;25777;47.824;18.982;2024-02-26T11:50:40;12.90;99.90
40077;DHT22;25777;47.824;18.982;2024-02-26T11:53:49;13.00;99.90
40077;DHT22;25777;47.824;18.982;2024-02-26T11:56:40;13.00;99.90
40077;DHT22;25777;47.824;18.982;2024-02-26T11:58:41;13.00;99.90
40077;DHT22;25777;47.824;18.982;2024-02-26T12:01:51;13.10;99.90
40077;DHT22;25777;47.824;18.982;2024-02-26T12:03:55;13.00;99.90
40077;DHT22;25777;47.824;18.982;2024-02-26T12:06:23;13.00;99.90
40077;DHT22;25777;47.824;18.982;2024-02-26T12:08:53;12.90;99.90
40077;DHT22;25777;47.824;18.982;2024-02-26T12:11:21;13.00;99.90
40077;DHT22;25777;47.824;18.982;2024-02-26T12:13:48;13.00;99.90
40077;DHT22;25777;47.824;18.982;2024-02-26T12:16:37;13.00;99.90
40077;DHT22;25777;47.824;18.982;2024-02-26T12:19:05;12.90;99.90
40077;DHT22;25777;47.824;18.982;2024-02-26T12:21:37;12.90;99.90
40077;DHT22;25777;47.824;18.982;2024-02-26T12:24:14;12.90;99.90
40077;DHT22;25777;47.824;18.982;2024-02-26T12:26:42;12.90;99.90
40077;DHT22;25777;47.824;18.982;2024-02-26T12:29:10;12.80;99.90
40077;DHT22;25777;47.824;18.982;2024-02-26T12:31:37;12.80;99.90
40077;DHT22;25777;47.824;18.982;2024-02-26T12:34:06;12.80;99.90
40077;DHT22;25777;47.824;18.982;2024-02-26T12:36:36;12.90;99.90
40077;DHT22;25777;47.824;18.982;2024-02-26T12:39:05;13.00;99.90
40077;DHT22;25777;47.824;18.982;2024-02-26T12:41:33;12.80;99.90
40077;DHT22;25777;47.824;18.982;2024-02-26T12:44:01;12.70;99.90
40077;DHT22;25777;47.824;18.982;2024-02-26T12:46:29;12.80;99.90
40077;DHT22;25777;47.824;18.982;2024-02-26T12:48:57;12.80;99.90
40077;DHT22;25777;47.824;18.982;2024-02-26T12:51:26;12.80;99.90
40077;DHT22;25777;47.824;18.982;2024-02-26T12:53:55;12.80;99.90
40077;DHT22;25777;47.824;18.982;2024-02-26T12:56:24;12.90;99.90
40077;DHT22;25777;47.824;18.982;2024-02-26T12:58:53;12.90;99.90
40077;DHT22;25777;47.824;18.982;2024-02-26T13:01:23;12.90;99.90
40077;DHT22;25777;47.824;18.982;2024-02-26T13:03:51;13.10;99.90
40077;DHT22;25777;47.824;18.982;2024-02-26T13:06:20;12.90;99.90
40077;DHT22;25777;47.824;18.982;2024-02-26T13:08:48;12.90;99.90
40077;DHT22;25777;47.824;18.982;2024-02-26T13:11:16;13.00;99.90
40077;DHT22;25777;47.824;18.982;2024-02-26T13:13:47;13.00;99.90
40077;DHT22;25777;47.824;18.982;2024-02-26T13:16:15;13.10;99.90
40077;DHT22;25777;47.824;18.982;2024-02-26T13:18:43;12.80;99.90
40077;DHT22;25777;47.824;18.982;2024-02-26T13:21:11;13.10;99.90
40077;DHT22;25777;47.824;18.982;2024-02-26T13:23:39;13.20;99.90
40077;DHT22;25777;47.824;18.982;2024-02-26T13:26:07;13.20;99.90
40077;DHT22;25777;47.824;18.982;2024-02-26T13:28:35;13.20;99.90
40077;DHT22;25777;47.824;18.982;2024-02-26T13:31:02;13.30;99.90
40077;DHT22;25777;47.824;18.982;2024-02-26T13:33:32;13.30;99.90
40077;DHT22;25777;47.824;18.982;2024-02-26T13:36:00;13.30;99.90
40077;DHT22;25777;47.824;18.982;2024-02-26T13:38:27;13.30;99.90
40077;DHT22;25777;47.824;18.982;2024-02-26T13:40:55;13.30;99.90
40077;DHT22;25777;47.824;18.982;2024-02-26T13:43:23;13.40;99.90
40077;DHT22;25777;47.824;18.982;2024-02-26T13:45:51;13.20;99.90
40077;DHT22;25777;47.824;18.982;2024-02-26T13:48:18;13.40;99.90
40077;DHT22;25777;47.824;18.982;2024-02-26T13:50:46;13.50;99.90
40077;DHT22;25777;47.824;18.982;2024-02-26T13:53:13;13.50;99.90
40077;DHT22;25777;47.824;18.982;2024-02-26T13:55:41;13.50;99.90
40077;DHT22;25777;47.824;18.982;2024-02-26T13:58:11;13.40;99.90
40077;DHT22;25777;47.824;18.982;2024-02-26T14:00:40;13.50;99.90
40077;DHT22;25777;47.824;18.982;2024-02-26T14:03:08;13.40;99.90
40077;DHT22;25777;47.824;18.982;2024-02-26T14:05:36;13.40;99.90
40077;DHT22;25777;47.824;18.982;2024-02-26T14:08:04;13.30;99.90
40077;DHT22;25777;47.824;18.982;2024-02-26T14:10:31;13.20;99.90
40077;DHT22;25777;47.824;18.982;2024-02-26T14:12:59;13.20;99.90
40077;DHT22;25777;47.824;18.982;2024-02-26T14:15:27;13.20;99.90
40077;DHT22;25777;47.824;18.982;2024-02-26T14:17:55;13.20;99.90
40077;DHT22;25777;47.824;18.982;2024-02-26T14:20:23;13.20;99.90
40077;DHT22;25777;47.824;18.982;2024-02-26T14:22:51;13.10;99.90
40077;DHT22;25777;47.824;18.982;2024-02-26T14:25:19;13.10;99.90
40077;DHT22;25777;47.824;18.982;2024-02-26T14:27:47;13.10;99.90
40077;DHT22;25777;47.824;18.982;2024-02-26T14:30:15;13.10;99.90
40077;DHT22;25777;47.824;18.982;2024-02-26T14:32:42;13.00;99.90
40077;DHT22;25777;47.824;18.982;2024-02-26T14:35:10;13.00;99.90
40077;DHT22;25777;47.824;18.982;2024-02-26T14:37:38;13.00;99.90
40077;DHT22;25777;47.824;18.982;2024-02-26T14:40:06;13.00;99.90
40077;DHT22;25777;47.824;18.982;2024-02-26T14:42:34;13.00;99.90
40077;DHT22;25777;47.824;18.982;2024-02-26T14:45:03;13.00;99.90
40077;DHT22;25777;47.824;18.982;2024-02-26T14:47:33;12.90;99.90
40077;DHT22;25777;47.824;18.982;2024-02-26T14:50:01;13.10;99.90
40077;DHT22;25777;47.824;18.982;2024-02-26T14:52:29;13.10;99.90
40077;DHT22;25777;47.824;18.982;2024-02-26T14:54:56;13.10;99.90
40077;DHT22;25777;47.824;18.982;2024-02-26T14:57:24;13.10;99.90
40077;DHT22;25777;47.824;18.982;2024-02-26T14:59:51;13.10;99.90
40077;DHT22;25777;47.824;18.982;2024-02-26T15:02:19;13.10;99.90
40077;DHT22;25777;47.824;18.982;2024-02-26T15:04:47;13.00;99.90
40077;DHT22;25777;47.824;18.982;2024-02-26T15:07:14;13.00;99.90
40077;DHT22;25777;47.824;18.982;2024-02-26T15:09:42;12.80;99.90
40077;DHT22;25777;47.824;18.982;2024-02-26T15:12:09;13.00;99.90
40077;DHT22;25777;47.824;18.982;2024-02-26T15:14:37;12.90;99.90
40077;DHT22;25777;47.824;18.982;2024-02-26T15:17:05;12.90;99.90
40077;DHT22;25777;47.824;18.982;2024-02-26T15:19:36;12.90;99.90
40077;DHT22;25777;47.824;18.982;2024-02-26T15:22:04;12.80;99.90
40077;DHT22;25777;47.824;18.982;2024-02-26T15:24:32;12.80;99.90
40077;DHT22;25777;47.824;18.982;2024-02-26T15:27:00;12.80;99.90
40077;DHT22;25777;47.824;18.982;2024-02-26T15:29:28;12.80;99.90
40077;DHT22;25777;47.824;18.982;2024-02-26T15:31:56;12.80;99.90
40077;DHT22;25777;47.824;18.982;2024-02-26T15:34:24;12.70;99.90
40077;DHT22;25777;47.824;18.982;2024-02-26T15:36:51;12.70;99.90